createdAt,value
2023-02-08T00:00:15.629Z,-4.75
2023-02-08T00:02:42.809Z,-4.77
2023-02-08T00:05:10.065Z,-5.09
2023-02-08T00:07:37.328Z,-4.88
2023-02-08T00:10:06.265Z,-4.85
2023-02-08T00:12:35.840Z,-4.87
2023-02-08T00:15:03.928Z,-4.85
2023-02-08T00:17:31.337Z,-4.83
2023-02-08T00:19:58.285Z,-4.79
2023-02-08T00:22:25.080Z,-4.78
2023-02-08T00:24:51.941Z,-4.76
2023-02-08T00:27:18.945Z,-4.75
2023-02-08T00:29:46.349Z,-4.76
2023-02-08T00:32:13.554Z,-4.83
2023-02-08T00:34:41.762Z,-4.86
2023-02-08T00:37:10.543Z,-4.90
2023-02-08T00:39:37.743Z,-4.92
2023-02-08T00:42:04.784Z,-4.96
2023-02-08T00:44:32.909Z,-4.97
2023-02-08T00:46:59.750Z,-5.00
2023-02-08T00:49:26.613Z,-5.03
2023-02-08T00:51:53.580Z,-5.07
2023-02-08T00:54:20.631Z,-5.06
2023-02-08T00:56:47.678Z,-5.10
2023-02-08T00:59:14.560Z,-5.17
2023-02-08T01:01:44.024Z,-5.19
2023-02-08T01:04:11.176Z,-5.14
2023-02-08T01:06:42.571Z,-5.08
2023-02-08T01:09:11.756Z,-5.02
2023-02-08T01:11:38.816Z,-5.00
2023-02-08T01:14:05.934Z,-4.98
2023-02-08T01:16:33.359Z,-5.04
2023-02-08T01:19:01.148Z,-5.09
2023-02-08T01:21:29.998Z,-5.13
2023-02-08T01:24:01.586Z,-5.19
2023-02-08T01:26:34.468Z,-5.24
2023-02-08T01:29:01.694Z,-5.26
2023-02-08T01:31:33.918Z,-5.28
2023-02-08T01:34:00.816Z,-5.31
2023-02-08T01:36:28.072Z,-5.39
2023-02-08T01:38:54.971Z,-5.45
2023-02-08T01:41:26.709Z,-5.48
2023-02-08T01:44:12.128Z,-5.50
2023-02-08T01:46:42.325Z,-5.50
2023-02-08T01:49:19.455Z,-5.49
2023-02-08T01:51:52.201Z,-5.49
2023-02-08T01:54:21.556Z,-5.50
2023-02-08T01:56:48.631Z,-5.52
2023-02-08T01:59:56.538Z,-5.55
2023-02-08T02:02:24.936Z,-5.57
2023-02-08T02:04:53.674Z,-5.59
2023-02-08T02:07:21.325Z,-5.61
2023-02-08T02:09:51.281Z,-5.62
2023-02-08T02:12:19.631Z,-5.63
2023-02-08T02:14:46.480Z,-5.67
2023-02-08T02:17:13.474Z,-5.71
2023-02-08T02:20:09.798Z,-5.76
2023-02-08T02:22:58.308Z,-5.81
2023-02-08T02:25:44.938Z,-5.85
2023-02-08T02:28:34.107Z,-5.91
2023-02-08T02:31:21.707Z,-5.94
2023-02-08T02:33:53.091Z,-5.94
2023-02-08T02:36:52.007Z,-5.94
2023-02-08T02:39:31.039Z,-5.96
2023-02-08T02:42:33.667Z,-5.96
2023-02-08T02:45:15.541Z,-5.97
2023-02-08T02:47:49.452Z,-5.98
2023-02-08T02:50:53.446Z,-5.98
2023-02-08T02:53:28.841Z,-5.96
2023-02-08T02:56:01.168Z,-5.94
2023-02-08T02:58:28.076Z,-5.90
2023-02-08T03:00:56.128Z,-5.86
2023-02-08T03:03:25.952Z,-5.81
2023-02-08T03:05:56.054Z,-5.79
2023-02-08T03:09:03.578Z,-5.77
2023-02-08T03:11:32.721Z,-5.77
2023-02-08T03:14:12.591Z,-5.75
2023-02-08T03:17:07.696Z,-5.74
2023-02-08T03:20:26.154Z,-5.71
2023-02-08T03:23:10.888Z,-5.68
2023-02-08T03:25:50.804Z,-5.66
2023-02-08T03:28:20.384Z,-5.69
2023-02-08T03:30:56.499Z,-5.74
2023-02-08T03:33:35.411Z,-5.78
2023-02-08T03:36:10.241Z,-5.84
2023-02-08T03:38:40.252Z,-5.88
2023-02-08T03:41:09.774Z,-5.94
2023-02-08T03:43:40.549Z,-6.01
2023-02-08T03:46:15.250Z,-6.05
2023-02-08T03:48:49.218Z,-6.06
2023-02-08T03:51:16.008Z,-6.09
2023-02-08T03:53:44.230Z,-6.09
2023-02-08T03:56:20.341Z,-6.11
2023-02-08T03:58:55.527Z,-6.14
2023-02-08T04:01:36.336Z,-6.16
2023-02-08T04:04:03.441Z,-6.15
2023-02-08T04:06:32.172Z,-6.15
2023-02-08T04:08:58.972Z,-6.15
2023-02-08T04:11:28.347Z,-6.12
2023-02-08T04:13:56.018Z,-6.14
2023-02-08T04:16:22.908Z,-6.17
2023-02-08T04:18:50.033Z,-6.17
2023-02-08T04:21:17.020Z,-6.17
2023-02-08T04:23:44.077Z,-6.14
2023-02-08T04:26:10.918Z,-6.17
2023-02-08T04:28:37.700Z,-6.28
2023-02-08T04:31:04.731Z,-6.36
2023-02-08T04:33:31.825Z,-6.44
2023-02-08T04:35:59.192Z,-6.51
2023-02-08T04:38:26.114Z,-6.56
2023-02-08T04:40:52.852Z,-6.62
2023-02-08T04:43:19.652Z,-6.67
2023-02-08T04:45:49.541Z,-6.71
2023-02-08T04:48:17.031Z,-6.78
2023-02-08T04:50:43.915Z,-6.84
2023-02-08T04:53:10.689Z,-6.88
2023-02-08T04:55:37.674Z,-6.91
2023-02-08T04:58:04.603Z,-6.94
2023-02-08T05:00:31.819Z,-6.96
2023-02-08T05:03:01.551Z,-7.00
2023-02-08T05:05:28.572Z,-7.04
2023-02-08T05:07:57.035Z,-7.07
2023-02-08T05:10:24.012Z,-7.11
2023-02-08T05:12:50.892Z,-7.15
2023-02-08T05:15:17.941Z,-7.19
2023-02-08T05:17:45.288Z,-7.17
2023-02-08T05:20:13.197Z,-7.17
2023-02-08T05:22:40.132Z,-7.17
2023-02-08T05:25:07.609Z,-7.17
2023-02-08T05:27:35.157Z,-7.14
2023-02-08T05:30:03.204Z,-7.12
2023-02-08T05:32:30.595Z,-7.14
2023-02-08T05:34:57.397Z,-7.18
2023-02-08T05:37:24.740Z,-7.21
2023-02-08T05:39:51.815Z,-7.23
2023-02-08T05:42:18.609Z,-7.22
2023-02-08T05:44:45.525Z,-7.19
2023-02-08T05:47:12.905Z,-7.16
2023-02-08T05:49:39.943Z,-7.11
2023-02-08T05:52:07.107Z,-7.05
2023-02-08T05:54:34.648Z,-7.01
2023-02-08T05:57:01.517Z,-6.97
2023-02-08T05:59:28.801Z,-6.92
2023-02-08T06:01:55.676Z,-6.89
2023-02-08T06:04:22.641Z,-6.89
2023-02-08T06:06:49.578Z,-6.87
2023-02-08T06:09:16.494Z,-6.82
2023-02-08T06:11:44.249Z,-6.79
2023-02-08T06:14:13.452Z,-6.75
2023-02-08T06:16:40.518Z,-6.71
2023-02-08T06:19:07.322Z,-6.62
2023-02-08T06:21:34.319Z,-6.51
2023-02-08T06:24:03.402Z,-6.42
2023-02-08T06:26:30.217Z,-6.33
2023-02-08T06:28:58.633Z,-6.24
2023-02-08T06:31:25.476Z,-6.16
2023-02-08T06:33:52.738Z,-6.11
2023-02-08T06:36:19.578Z,-6.08
2023-02-08T06:38:46.778Z,-6.02
2023-02-08T06:41:13.592Z,-5.94
2023-02-08T06:43:40.757Z,-5.86
2023-02-08T06:46:08.158Z,-5.82
2023-02-08T06:48:35.240Z,-5.79
2023-02-08T06:51:02.058Z,-5.74
2023-02-08T06:53:29.258Z,-5.67
2023-02-08T06:55:56.261Z,-5.63
2023-02-08T06:58:23.143Z,-5.58
2023-02-08T07:00:50.553Z,-5.52
2023-02-08T07:03:17.421Z,-5.41
2023-02-08T07:05:58.723Z,-5.32
2023-02-08T07:08:32.860Z,-5.25
2023-02-08T07:11:15.384Z,-5.15
2023-02-08T07:13:47.153Z,-5.06
2023-02-08T07:16:14.400Z,-4.96
2023-02-08T07:18:41.627Z,-4.88
2023-02-08T07:21:10.097Z,-4.79
2023-02-08T07:23:38.885Z,-4.74
2023-02-08T07:26:07.670Z,-4.65
2023-02-08T07:28:36.872Z,-4.52
2023-02-08T07:31:08.123Z,-4.39
2023-02-08T07:33:35.053Z,-4.26
2023-02-08T07:36:04.816Z,-4.15
2023-02-08T07:38:33.256Z,-4.04
2023-02-08T07:41:04.912Z,-3.87
2023-02-08T07:43:33.010Z,-3.79
2023-02-08T07:46:17.772Z,-3.69
2023-02-08T07:48:44.852Z,-3.52
2023-02-08T07:51:11.927Z,-3.39
2023-02-08T07:53:39.904Z,-3.34
2023-02-08T07:56:06.840Z,-3.29
2023-02-08T07:58:36.886Z,-3.19
2023-02-08T08:01:19.594Z,-3.12
2023-02-08T08:03:49.859Z,-3.13
2023-02-08T08:06:18.265Z,-3.12
2023-02-08T08:08:47.105Z,-3.02
2023-02-08T08:11:15.139Z,-2.89
2023-02-08T08:13:43.209Z,-2.80
2023-02-08T08:16:09.995Z,-2.78
2023-02-08T08:18:37.054Z,-2.74
2023-02-08T08:21:04.504Z,-2.63
2023-02-08T08:23:32.825Z,-2.47
2023-02-08T08:26:00.154Z,-2.39
2023-02-08T08:28:27.310Z,-2.44
2023-02-08T08:30:54.450Z,-2.40
2023-02-08T08:33:21.322Z,-2.26
2023-02-08T08:35:48.524Z,-2.14
2023-02-08T08:38:15.591Z,-2.04
2023-02-08T08:40:42.996Z,-1.96
2023-02-08T08:43:10.533Z,-1.85
2023-02-08T08:45:37.767Z,-1.75
2023-02-08T08:48:05.395Z,-1.65
2023-02-08T08:50:33.629Z,-1.56
2023-02-08T08:53:00.652Z,-1.45
2023-02-08T08:55:27.873Z,-1.29
2023-02-08T08:57:54.836Z,-1.14
2023-02-08T09:00:22.456Z,-1.05
2023-02-08T09:02:49.546Z,-0.99
2023-02-08T09:05:16.398Z,-0.87
2023-02-08T09:07:43.498Z,-0.74
2023-02-08T09:10:15.522Z,-0.66
2023-02-08T09:12:42.766Z,-0.58
2023-02-08T09:15:11.203Z,-0.47
2023-02-08T09:17:39.391Z,-0.37
2023-02-08T09:20:06.755Z,-0.27
2023-02-08T09:22:33.707Z,-0.16
2023-02-08T09:25:01.594Z,-0.05
2023-02-08T09:27:29.316Z,0.09
2023-02-08T09:29:56.660Z,0.22
2023-02-08T09:32:23.576Z,0.29
2023-02-08T09:34:51.253Z,0.28
2023-02-08T09:37:19.066Z,0.28
2023-02-08T09:39:46.115Z,0.29
2023-02-08T09:42:20.916Z,0.30
2023-02-08T09:45:21.728Z,0.30
2023-02-08T09:48:00.160Z,0.34
2023-02-08T09:50:42.015Z,0.37
2023-02-08T09:53:17.666Z,0.43
2023-02-08T09:55:46.358Z,0.51
2023-02-08T09:58:17.674Z,0.60
2023-02-08T10:00:46.993Z,0.66
2023-02-08T10:03:42.020Z,0.74
2023-02-08T10:06:11.328Z,0.76
2023-02-08T10:08:38.127Z,0.79
2023-02-08T10:11:38.418Z,0.81
2023-02-08T10:14:08.687Z,0.89
2023-02-08T10:16:47.100Z,0.91
2023-02-08T10:19:46.464Z,0.93
2023-02-08T10:22:32.727Z,0.91
2023-02-08T10:25:22.283Z,0.93
2023-02-08T10:28:10.162Z,0.98
2023-02-08T10:30:42.562Z,1.06
2023-02-08T10:33:31.867Z,1.09
2023-02-08T10:35:58.819Z,1.16
2023-02-08T10:38:45.456Z,1.28
2023-02-08T10:41:29.363Z,1.35
2023-02-08T10:44:18.052Z,1.39
2023-02-08T10:46:52.340Z,1.42
2023-02-08T10:49:29.080Z,1.47
2023-02-08T10:51:55.977Z,1.51
2023-02-08T10:54:22.896Z,1.58
2023-02-08T10:56:57.995Z,1.63
2023-02-08T10:59:35.360Z,1.67
2023-02-08T11:02:02.176Z,1.71
2023-02-08T11:04:29.237Z,1.76
2023-02-08T11:06:58.019Z,1.81
2023-02-08T11:09:28.936Z,1.89
2023-02-08T11:11:57.117Z,1.93
2023-02-08T11:14:45.962Z,1.95
2023-02-08T11:17:26.172Z,1.96
2023-02-08T11:19:53.155Z,1.92
2023-02-08T11:22:21.816Z,1.95
2023-02-08T11:25:05.117Z,1.97
2023-02-08T11:27:34.288Z,1.94
2023-02-08T11:30:15.011Z,1.96
2023-02-08T11:32:43.636Z,1.96
2023-02-08T11:35:22.132Z,1.99
2023-02-08T11:37:52.958Z,2.04
2023-02-08T11:40:42.496Z,2.02
2023-02-08T11:43:33.526Z,2.03
2023-02-08T11:46:01.717Z,2.00
2023-02-08T11:48:55.481Z,1.95
2023-02-08T11:51:29.597Z,1.88
2023-02-08T11:53:59.970Z,1.84
2023-02-08T11:56:31.432Z,1.81
2023-02-08T11:59:15.746Z,1.83
2023-02-08T12:01:43.182Z,1.90
2023-02-08T12:04:12.275Z,1.93
2023-02-08T12:07:14.899Z,2.02
2023-02-08T12:09:56.982Z,1.97
2023-02-08T12:12:46.767Z,1.91
2023-02-08T12:15:16.400Z,1.95
2023-02-08T12:18:16.731Z,1.97
2023-02-08T12:20:45.094Z,2.07
2023-02-08T12:23:28.229Z,2.17
2023-02-08T12:26:07.469Z,2.20
2023-02-08T12:28:52.352Z,2.16
2023-02-08T12:31:24.304Z,2.20
2023-02-08T12:34:20.831Z,2.24
2023-02-08T12:37:15.096Z,2.27
2023-02-08T12:40:06.254Z,2.25
2023-02-08T12:43:08.309Z,2.24
2023-02-08T12:45:53.330Z,2.21
2023-02-08T12:48:49.332Z,2.27
2023-02-08T12:51:30.072Z,2.34
2023-02-08T12:53:59.244Z,2.30
2023-02-08T12:56:31.256Z,2.24
2023-02-08T12:59:11.780Z,2.19
2023-02-08T13:01:43.806Z,2.19
2023-02-08T13:04:15.189Z,2.25
2023-02-08T13:06:51.468Z,2.32
2023-02-08T13:09:35.400Z,2.39
2023-02-08T13:12:12.270Z,2.41
2023-02-08T13:14:42.358Z,2.40
2023-02-08T13:17:17.910Z,2.32
2023-02-08T13:19:59.773Z,2.21
2023-02-08T13:22:30.333Z,2.10
2023-02-08T13:25:06.968Z,2.04
2023-02-08T13:27:34.847Z,1.98
2023-02-08T13:30:01.976Z,1.91
2023-02-08T13:32:36.250Z,1.83
2023-02-08T13:35:11.443Z,1.76
2023-02-08T13:37:40.090Z,1.71
2023-02-08T13:40:10.251Z,1.65
2023-02-08T13:42:42.764Z,1.58
2023-02-08T13:45:10.628Z,1.50
2023-02-08T13:47:48.051Z,1.44
2023-02-08T13:50:29.122Z,1.39
2023-02-08T13:52:56.666Z,1.33
2023-02-08T13:55:35.520Z,1.28
2023-02-08T13:58:14.900Z,1.24
2023-02-08T14:00:56.835Z,1.20
2023-02-08T14:03:28.060Z,1.14
2023-02-08T14:05:58.125Z,1.09
2023-02-08T14:08:43.798Z,1.06
2023-02-08T14:11:34.552Z,1.05
2023-02-08T14:14:04.419Z,1.02
2023-02-08T14:16:32.288Z,0.99
2023-02-08T14:19:25.652Z,0.98
2023-02-08T14:22:00.506Z,0.94
2023-02-08T14:24:34.770Z,0.90
2023-02-08T14:27:21.569Z,0.87
2023-02-08T14:30:20.694Z,0.84
2023-02-08T14:32:51.052Z,0.77
2023-02-08T14:35:20.264Z,0.72
2023-02-08T14:37:47.721Z,0.68
2023-02-08T14:40:25.021Z,0.65
2023-02-08T14:42:52.317Z,0.61
2023-02-08T14:45:33.766Z,0.53
2023-02-08T14:48:19.780Z,0.47
2023-02-08T14:51:11.126Z,0.36
2023-02-08T14:53:41.240Z,0.24
2023-02-08T14:56:22.465Z,0.15
2023-02-08T14:58:52.929Z,0.18
2023-02-08T15:01:22.248Z,0.05
2023-02-08T15:03:50.226Z,-0.15
2023-02-08T15:06:20.212Z,-0.26
2023-02-08T15:08:51.685Z,-0.32
2023-02-08T15:11:26.820Z,-0.40
2023-02-08T15:13:54.691Z,-0.49
2023-02-08T15:16:22.075Z,-0.59
2023-02-08T15:18:50.066Z,-0.67
2023-02-08T15:21:23.145Z,-0.75
2023-02-08T15:24:18.856Z,-0.82
2023-02-08T15:26:53.220Z,-0.89
2023-02-08T15:29:26.122Z,-0.93
2023-02-08T15:31:57.132Z,-0.99
2023-02-08T15:34:25.041Z,-1.05
2023-02-08T15:36:55.775Z,-1.09
2023-02-08T15:39:35.041Z,-1.15
2023-02-08T15:42:01.823Z,-1.21
2023-02-08T15:44:30.626Z,-1.25
2023-02-08T15:47:02.588Z,-1.31
2023-02-08T15:49:31.237Z,-1.36
2023-02-08T15:51:58.397Z,-1.42
2023-02-08T15:54:25.506Z,-1.47
2023-02-08T15:56:59.432Z,-1.50
2023-02-08T15:59:32.366Z,-1.54
2023-02-08T16:02:05.344Z,-1.56
2023-02-08T16:04:40.825Z,-1.60
2023-02-08T16:07:22.336Z,-1.63
2023-02-08T16:09:49.197Z,-1.69
2023-02-08T16:12:20.922Z,-1.73
2023-02-08T16:14:52.804Z,-1.80
2023-02-08T16:17:43.171Z,-1.84
2023-02-08T16:20:33.949Z,-1.90
2023-02-08T16:23:03.356Z,-1.96
2023-02-08T16:25:34.907Z,-2.01
2023-02-08T16:28:05.567Z,-2.07
2023-02-08T16:30:34.041Z,-2.14
2023-02-08T16:33:07.703Z,-2.18
2023-02-08T16:35:37.194Z,-2.20
2023-02-08T16:38:05.728Z,-2.20
2023-02-08T16:40:52.985Z,-2.19
2023-02-08T16:43:35.430Z,-2.16
2023-02-08T16:46:11.173Z,-2.12
2023-02-08T16:48:42.232Z,-2.08
2023-02-08T16:51:16.198Z,-2.03
2023-02-08T16:53:43.647Z,-2.00
2023-02-08T16:56:10.717Z,-1.97
2023-02-08T16:58:37.606Z,-1.95
2023-02-08T17:01:04.735Z,-1.93
2023-02-08T17:03:32.735Z,-1.95
2023-02-08T17:06:11.001Z,-1.96
2023-02-08T17:08:38.842Z,-1.98
2023-02-08T17:11:05.742Z,-2.02
2023-02-08T17:13:32.571Z,-2.03
2023-02-08T17:15:59.712Z,-2.03
2023-02-08T17:18:26.661Z,-2.03
2023-02-08T17:20:58.993Z,-2.04
2023-02-08T17:23:26.410Z,-2.10
2023-02-08T17:25:53.226Z,-2.16
2023-02-08T17:28:20.118Z,-2.21
2023-02-08T17:30:47.671Z,-2.25
2023-02-08T17:33:17.576Z,-2.28
2023-02-08T17:35:48.050Z,-2.32
2023-02-08T17:38:15.201Z,-2.35
2023-02-08T17:40:42.561Z,-2.37
2023-02-08T17:43:10.169Z,-2.42
2023-02-08T17:45:41.599Z,-2.45
2023-02-08T17:48:08.630Z,-2.46
2023-02-08T17:50:35.743Z,-2.47
2023-02-08T17:53:03.532Z,-2.50
2023-02-08T17:55:30.393Z,-2.58
2023-02-08T17:57:57.505Z,-2.69
2023-02-08T18:00:25.286Z,-2.77
2023-02-08T18:02:53.767Z,-2.79
2023-02-08T18:05:25.149Z,-2.80
2023-02-08T18:07:53.817Z,-2.82
2023-02-08T18:10:21.929Z,-2.86
2023-02-08T18:12:49.660Z,-2.89
2023-02-08T18:15:19.532Z,-2.93
2023-02-08T18:17:47.673Z,-2.96
2023-02-08T18:20:14.708Z,-2.99
2023-02-08T18:22:42.907Z,-3.01
2023-02-08T18:25:10.319Z,-3.01
2023-02-08T18:27:37.371Z,-3.02
2023-02-08T18:30:04.826Z,-3.02
2023-02-08T18:32:31.991Z,-3.02
2023-02-08T18:35:03.211Z,-3.02
2023-02-08T18:37:31.678Z,-3.02
2023-02-08T18:39:59.368Z,-3.04
2023-02-08T18:42:26.370Z,-3.07
2023-02-08T18:44:53.409Z,-3.13
2023-02-08T18:47:20.288Z,-3.18
2023-02-08T18:49:47.380Z,-3.23
2023-02-08T18:52:16.801Z,-3.30
2023-02-08T18:54:44.067Z,-3.37
2023-02-08T18:57:10.915Z,-3.46
2023-02-08T18:59:38.583Z,-3.57
2023-02-08T19:02:06.658Z,-3.67
2023-02-08T19:04:37.734Z,-3.81
2023-02-08T19:07:06.804Z,-4.02
2023-02-08T19:09:37.660Z,-4.14
2023-02-08T19:12:05.447Z,-4.18
2023-02-08T19:14:33.194Z,-4.19
2023-02-08T19:17:00.381Z,-4.19
2023-02-08T19:19:27.517Z,-4.18
2023-02-08T19:21:54.642Z,-4.16
2023-02-08T19:24:21.652Z,-4.16
2023-02-08T19:26:48.485Z,-4.15
2023-02-08T19:29:17.487Z,-4.16
2023-02-08T19:31:45.156Z,-4.17
2023-02-08T19:34:12.419Z,-4.17
2023-02-08T19:36:44.960Z,-4.18
2023-02-08T19:39:14.854Z,-4.18
2023-02-08T19:41:42.611Z,-4.18
2023-02-08T19:44:11.934Z,-4.20
2023-02-08T19:46:39.330Z,-4.23
2023-02-08T19:49:06.469Z,-4.27
2023-02-08T19:51:36.581Z,-4.33
2023-02-08T19:54:06.773Z,-4.37
2023-02-08T19:56:35.061Z,-4.40
2023-02-08T19:59:05.896Z,-4.43
2023-02-08T20:01:34.160Z,-4.49
2023-02-08T20:04:01.218Z,-4.52
2023-02-08T20:06:30.330Z,-4.55
2023-02-08T20:09:00.361Z,-4.64
2023-02-08T20:11:37.076Z,-4.71
2023-02-08T20:14:06.132Z,-4.76
2023-02-08T20:16:33.723Z,-4.81
2023-02-08T20:19:01.559Z,-4.84
2023-02-08T20:21:28.854Z,-4.87
2023-02-08T20:23:55.810Z,-4.89
2023-02-08T20:26:26.112Z,-4.92
2023-02-08T20:28:55.055Z,-4.98
2023-02-08T20:31:24.772Z,-5.02
2023-02-08T20:33:52.610Z,-5.05
2023-02-08T20:36:26.530Z,-5.09
2023-02-08T20:38:54.760Z,-5.13
2023-02-08T20:41:22.520Z,-5.22
2023-02-08T20:43:50.187Z,-5.29
2023-02-08T20:46:23.608Z,-5.32
2023-02-08T20:48:52.249Z,-5.36
2023-02-08T20:51:20.596Z,-5.39
2023-02-08T20:53:48.015Z,-5.41
2023-02-08T20:56:18.811Z,-5.50
2023-02-08T20:58:45.649Z,-5.62
2023-02-08T21:01:15.614Z,-5.69
2023-02-08T21:03:42.943Z,-5.74
2023-02-08T21:06:14.101Z,-5.79
2023-02-08T21:08:44.138Z,-5.85
2023-02-08T21:11:11.842Z,-5.92
2023-02-08T21:13:38.850Z,-5.97
2023-02-08T21:16:06.880Z,-5.96
2023-02-08T21:18:36.221Z,-5.93
2023-02-08T21:21:04.442Z,-5.91
2023-02-08T21:23:31.818Z,-6.03
2023-02-08T21:25:59.705Z,-6.17
2023-02-08T21:28:26.644Z,-6.30
2023-02-08T21:31:00.923Z,-6.37
2023-02-08T21:33:29.967Z,-6.42
2023-02-08T21:36:00.307Z,-6.41
2023-02-08T21:38:30.023Z,-6.43
2023-02-08T21:40:56.777Z,-6.43
2023-02-08T21:43:23.605Z,-6.52
2023-02-08T21:45:50.692Z,-6.57
2023-02-08T21:48:17.495Z,-6.58
2023-02-08T21:51:03.091Z,-6.55
2023-02-08T21:53:48.903Z,-6.48
2023-02-08T21:56:16.171Z,-6.42
2023-02-08T21:58:43.578Z,-6.37
2023-02-08T22:01:10.538Z,-6.30
2023-02-08T22:03:38.169Z,-6.24
2023-02-08T22:06:05.329Z,-6.20
2023-02-08T22:08:32.146Z,-6.16
2023-02-08T22:11:04.027Z,-6.11
2023-02-08T22:13:32.870Z,-6.09
2023-02-08T22:16:01.916Z,-6.05
2023-02-08T22:18:28.813Z,-6.02
2023-02-08T22:20:55.970Z,-5.97
2023-02-08T22:23:22.763Z,-5.94
2023-02-08T22:25:52.486Z,-5.94
2023-02-08T22:28:19.754Z,-5.93
2023-02-08T22:30:48.549Z,-5.95
2023-02-08T22:33:15.588Z,-5.97
2023-02-08T22:35:42.807Z,-5.99
2023-02-08T22:38:10.001Z,-6.01
2023-02-08T22:40:36.947Z,-6.01
2023-02-08T22:43:03.940Z,-5.99
2023-02-08T22:45:31.245Z,-5.97
2023-02-08T22:47:58.010Z,-5.95
2023-02-08T22:50:24.843Z,-5.91
2023-02-08T22:52:51.565Z,-5.91
2023-02-08T22:55:18.535Z,-5.93
2023-02-08T22:57:45.419Z,-5.95
2023-02-08T23:00:13.963Z,-5.98
2023-02-08T23:02:41.883Z,-6.02
2023-02-08T23:05:08.736Z,-6.03
2023-02-08T23:07:36.854Z,-6.02
2023-02-08T23:10:05.028Z,-5.99
2023-02-08T23:12:32.351Z,-5.96
2023-02-08T23:14:59.250Z,-5.94
2023-02-08T23:17:26.218Z,-5.95
2023-02-08T23:19:53.040Z,-5.96
2023-02-08T23:22:19.957Z,-5.96
2023-02-08T23:24:46.794Z,-5.95
2023-02-08T23:27:13.706Z,-5.96
2023-02-08T23:29:40.720Z,-6.07
2023-02-08T23:32:07.734Z,-6.14
2023-02-08T23:34:34.834Z,-6.15
2023-02-08T23:37:01.761Z,-6.13
2023-02-08T23:39:28.679Z,-6.19
2023-02-08T23:41:55.927Z,-6.31
2023-02-08T23:44:23.060Z,-6.43
2023-02-08T23:46:50.157Z,-6.52
2023-02-08T23:49:16.986Z,-6.61
2023-02-08T23:51:43.845Z,-6.66
2023-02-08T23:54:11.144Z,-6.68
2023-02-08T23:56:38.258Z,-6.69
2023-02-08T23:59:07.630Z,-6.69
